Time;durP1;ratioP1;P1;durP2;ratioP2;P2;SDS_P1;SDS_P2;PMS_P1;PMS_P2;Temp;Humidity;BMP_temperature;BMP_pressure;BME280_temperature;BME280_humidity;BME280_pressure;Samples;Min_cycle;Max_cycle;Signal;HPM_P1;HPM_P2
2021/06/04 00:01:44;;;;;;;;;;;;;;;13.34;64.31;100483.69;4259767;33;33894;-96
2021/06/04 00:04:40;;;;;;;;;;;;;;;13.17;64.76;100485.69;4239612;33;32716;-95
2021/06/04 00:07:16;;;;;;;;;;;;;;;13.32;64.54;100486.53;4260343;33;34015;-95
2021/06/04 00:09:52;;;;;;;;;;;;;;;13.16;64.86;100487.59;4250426;33;33158;-96
2021/06/04 00:12:33;;;;;;;;;;;;;;;13.25;64.66;100481.03;4225365;33;34336;-96
2021/06/04 00:15:32;;;;;;;;;;;;;;;12.89;66.07;100480.91;4226982;33;36561;-95
2021/06/04 00:18:15;;;;;;;;;;;;;;;12.94;65.78;100483.91;4223611;33;35095;-96
2021/06/04 00:21:10;;;;;;;;;;;;;;;12.86;66.38;100482.13;4218341;34;33174;-95
2021/06/04 00:24:04;;;;;;;;;;;;;;;12.77;66.89;100487.78;4240370;33;34896;-95
2021/06/04 00:26:40;;;;;;;;;;;;;;;13.05;65.62;100474.47;4231613;33;34993;-96
2021/06/04 00:29:32;;;;;;;;;;;;;;;13.12;65.16;100482.72;4280047;33;32696;-94
2021/06/04 00:32:08;;;;;;;;;;;;;;;13.00;65.39;100480.44;4262065;33;35247;-96
2021/06/04 00:34:56;;;;;;;;;;;;;;;13.07;65.41;100477.84;4250805;33;32484;-94
2021/06/04 00:37:35;;;;;;;;;;;;;;;12.93;65.62;100486.81;4249286;33;32867;-94
2021/06/04 00:40:11;;;;;;;;;;;;;;;12.75;66.59;100481.72;4260009;33;33124;-96
2021/06/04 00:42:59;;;;;;;;;;;;;;;12.66;66.88;100475.53;4259492;33;34512;-94
2021/06/04 00:45:41;;;;;;;;;;;;;;;12.89;66.13;100476.31;4271667;33;34754;-96
2021/06/04 00:48:41;;;;;;;;;;;;;;;12.84;66.13;100473.34;4238821;33;33060;-96
2021/06/04 00:51:32;;;;;;;;;;;;;;;12.73;66.64;100483.78;4237224;33;36040;-96
2021/06/04 00:54:39;;;;;;;;;;;;;;;13.05;65.45;100475.31;4251996;33;34038;-95
2021/06/04 00:57:15;;;;;;;;;;;;;;;12.83;65.89;100482.50;4258386;33;33705;-94
2021/06/04 00:59:59;;;;;;;;;;;;;;;12.92;66.03;100488.69;4257090;33;33979;-96
2021/06/04 01:02:48;;;;;;;;;;;;;;;12.73;66.47;100483.78;4248552;33;33826;-93
2021/06/04 01:05:22;;;;;;;;;;;;;;;12.97;65.79;100479.97;4524527;28;33829;-93
2021/06/04 01:08:30;;;;;;;;;;;;;;;12.88;65.88;100480.06;4427027;28;35006;-94
2021/06/04 01:11:34;;;;;;;;;;;;;;;12.78;66.43;100479.47;4732447;28;34159;-93
2021/06/04 01:14:42;;;;;;;;;;;;;;;12.76;67.00;100475.28;4405292;28;20003;-93
2021/06/04 01:20:50;;;;;;;;;;;;;;;12.97;66.31;100466.41;4416354;28;32573;-93
2021/06/04 01:23:39;;;;;;;;;;;;;;;12.97;65.98;100469.12;4435039;28;33503;-93
2021/06/04 01:26:33;;;;;;;;;;;;;;;12.79;66.51;100481.16;4418726;28;32209;-93
2021/06/04 01:29:54;;;;;;;;;;;;;;;12.80;66.42;100477.44;4388637;28;32580;-93
2021/06/04 01:32:30;;;;;;;;;;;;;;;12.68;66.93;100474.31;4649964;28;33483;-93
2021/06/04 01:35:24;;;;;;;;;;;;;;;12.79;67.08;100475.75;4692700;28;31768;-94
2021/06/04 01:38:00;;;;;;;;;;;;;;;12.69;67.74;100469.72;4622531;28;31823;-94
2021/06/04 01:40:59;;;;;;;;;;;;;;;12.87;67.30;100472.97;4589197;28;31171;-93
2021/06/04 01:43:59;;;;;;;;;;;;;;;13.09;66.63;100462.22;4560308;28;35275;31
2021/06/04 01:46:34;;;;;;;;;;;;;;;12.87;67.33;100474.81;4529221;28;34124;-94
2021/06/04 01:52:21;;;;;;;;;;;;;;;13.02;66.64;100464.84;4325839;28;32626;-94
2021/06/04 01:58:05;;;;;;;;;;;;;;;13.13;65.88;100455.38;4484737;28;33035;-94
2021/06/04 02:00:48;;;;;;;;;;;;;;;13.25;65.14;100453.87;4308784;28;33128;-94
2021/06/04 02:03:25;;;;;;;;;;;;;;;12.98;66.26;100457.22;4434571;28;34976;-94
2021/06/04 02:06:10;;;;;;;;;;;;;;;13.15;65.50;100463.34;4542389;28;33833;31
2021/06/04 02:08:46;;;;;;;;;;;;;;;13.19;65.20;100470.09;4308105;28;33880;-94
2021/06/04 02:11:28;;;;;;;;;;;;;;;13.04;65.42;100461.94;4239132;33;33138;-94
2021/06/04 02:15:03;;;;;;;;;;;;;;;13.15;65.07;100464.19;4233121;33;33901;-94
2021/06/04 02:21:38;;;;;;;;;;;;;;;13.02;65.55;100474.84;4350521;28;33340;-96
2021/06/04 02:24:30;;;;;;;;;;;;;;;12.95;65.87;100463.03;4204724;34;33349;-94
2021/06/04 02:27:09;;;;;;;;;;;;;;;12.85;66.34;100474.16;4195877;34;33010;-96
2021/06/04 02:30:16;;;;;;;;;;;;;;;13.06;65.39;100462.59;4251765;33;35434;-95
2021/06/04 02:33:21;;;;;;;;;;;;;;;13.11;64.93;100468.28;4238118;33;20388;-93
2021/06/04 02:36:21;;;;;;;;;;;;;;;12.72;65.99;100472.06;4246246;33;33180;-96
2021/06/04 02:39:18;;;;;;;;;;;;;;;12.77;65.97;100482.38;4247741;33;33714;-96
2021/06/04 02:42:21;;;;;;;;;;;;;;;12.76;66.18;100486.97;4194443;28;34577;-93
2021/06/04 02:45:07;;;;;;;;;;;;;;;12.86;66.14;100479.41;4277400;28;34389;-93
2021/06/04 02:48:22;;;;;;;;;;;;;;;12.79;66.83;100480.31;4444797;28;20023;-94
2021/06/04 02:51:19;;;;;;;;;;;;;;;12.93;66.58;100475.94;4562150;28;34162;-93
2021/06/04 02:54:01;;;;;;;;;;;;;;;12.69;67.97;100476.00;4433326;28;34713;-93
2021/06/04 02:56:38;;;;;;;;;;;;;;;13.09;66.65;100470.34;4461105;28;31978;-93
2021/06/04 02:59:37;;;;;;;;;;;;;;;12.67;68.23;100477.22;4541252;28;34110;31
2021/06/04 03:02:42;;;;;;;;;;;;;;;13.02;67.28;100474.84;4431341;28;33122;-93
2021/06/04 03:05:21;;;;;;;;;;;;;;;13.01;67.42;100484.03;4660424;28;33816;-93
2021/06/04 03:11:29;;;;;;;;;;;;;;;13.09;67.54;100481.22;4622161;28;20086;31
2021/06/04 03:14:08;;;;;;;;;;;;;;;13.46;66.11;100490.34;4363790;27;33978;-95
2021/06/04 03:16:45;;;;;;;;;;;;;;;13.30;66.86;100483.19;4453562;28;34881;-94
2021/06/04 03:19:19;;;;;;;;;;;;;;;13.54;66.18;100489.38;4251941;28;33583;-92
2021/06/04 03:21:56;;;;;;;;;;;;;;;13.55;65.86;100500.06;4246584;28;34484;-94
2021/06/04 03:24:36;;;;;;;;;;;;;;;13.19;66.92;100497.22;4224929;33;35172;-94
2021/06/04 03:27:28;;;;;;;;;;;;;;;13.48;66.23;100501.00;4438870;28;32607;31
2021/06/04 03:30:05;;;;;;;;;;;;;;;13.51;66.06;100495.19;4324968;28;33475;-93
2021/06/04 03:32:39;;;;;;;;;;;;;;;13.89;65.10;100498.63;4516808;28;31984;-94
2021/06/04 03:38:38;;;;;;;;;;;;;;;13.84;65.61;100501.03;4720538;27;20354;-94
2021/06/04 03:44:31;;;;;;;;;;;;;;;13.93;65.13;100499.88;4768218;28;20005;-93
2021/06/04 03:47:10;;;;;;;;;;;;;;;13.91;65.47;100501.13;4369750;28;32969;-93
2021/06/04 03:53:30;;;;;;;;;;;;;;;14.28;64.99;100516.41;5054104;28;19975;31
2021/06/04 03:56:32;;;;;;;;;;;;;;;14.30;64.98;100514.31;4534636;28;20112;-95
2021/06/04 03:59:09;;;;;;;;;;;;;;;14.44;64.74;100520.72;4298079;28;33846;-96
2021/06/04 04:01:56;;;;;;;;;;;;;;;14.37;65.33;100519.84;4279481;28;33895;-93
2021/06/04 04:04:32;;;;;;;;;;;;;;;14.58;64.71;100515.41;4414378;28;32806;-94
2021/06/04 04:30:42;;;;;;;;;;;;;;;15.18;65.58;100518.69;2773937;28;20141;-95
2021/06/04 04:33:28;;;;;;;;;;;;;;;15.22;64.33;100514.50;4263675;33;32724;-93
2021/06/04 04:36:03;;;;;;;;;;;;;;;15.52;63.38;100516.97;4258592;33;32739;-93
2021/06/04 04:38:43;;;;;;;;;;;;;;;15.82;63.27;100524.91;4246933;33;33067;-94
2021/06/04 04:41:18;;;;;;;;;;;;;;;15.86;62.55;100520.75;4247468;33;32820;-94
2021/06/04 04:43:56;;;;;;;;;;;;;;;15.74;62.71;100523.19;4247207;33;32441;-94
2021/06/04 04:46:43;;;;;;;;;;;;;;;16.19;61.09;100525.47;4265746;33;34511;-94
2021/06/04 04:49:22;;;;;;;;;;;;;;;16.48;60.04;100529.75;4235863;33;36420;-93
2021/06/04 04:51:58;;;;;;;;;;;;;;;16.69;60.06;100527.88;4234674;33;33341;-94
2021/06/04 04:54:42;;;;;;;;;;;;;;;16.86;60.32;100528.31;4247164;33;33728;-94
2021/06/04 04:57:24;;;;;;;;;;;;;;;17.04;60.62;100533.19;4254600;33;32894;-93
2021/06/04 05:00:04;;;;;;;;;;;;;;;17.22;60.22;100527.06;4243623;33;34331;-94
2021/06/04 05:02:40;;;;;;;;;;;;;;;17.35;59.93;100524.31;4241997;33;34314;-93
2021/06/04 05:05:14;;;;;;;;;;;;;;;17.36;59.57;100525.97;4242332;33;34358;-94
2021/06/04 05:07:47;;;;;;;;;;;;;;;17.42;59.82;100530.56;4242679;33;34900;-93
2021/06/04 05:10:21;;;;;;;;;;;;;;;17.55;59.63;100532.44;4255836;33;33461;-94
2021/06/04 05:12:59;;;;;;;;;;;;;;;17.78;58.78;100533.84;4243277;33;35316;-94
2021/06/04 05:16:05;;;;;;;;;;;;;;;17.53;57.28;100533.72;4260406;33;20016;-94
2021/06/04 05:18:44;;;;;;;;;;;;;;;17.85;57.36;100534.69;4237386;33;34517;-94
2021/06/04 05:21:37;;;;;;;;;;;;;;;18.04;57.32;100534.81;4231824;33;34944;-93
2021/06/04 05:24:10;;;;;;;;;;;;;;;18.28;56.61;100533.25;4235968;33;33577;-93
2021/06/04 05:26:47;;;;;;;;;;;;;;;18.44;55.71;100537.34;4229426;33;32928;-95
2021/06/04 05:29:23;;;;;;;;;;;;;;;18.46;54.44;100530.59;4221789;33;33142;-96
2021/06/04 05:32:23;;;;;;;;;;;;;;;18.66;53.91;100529.63;4268709;33;34004;-95
2021/06/04 05:34:56;;;;;;;;;;;;;;;18.84;52.48;100537.06;4259147;33;34404;-96
2021/06/04 05:37:44;;;;;;;;;;;;;;;18.76;54.25;100535.47;4235472;33;33292;-95
2021/06/04 05:40:22;;;;;;;;;;;;;;;18.98;53.92;100532.34;4224429;33;33097;-96
2021/06/04 05:43:29;;;;;;;;;;;;;;;19.11;53.76;100528.66;4238950;33;34038;-96
2021/06/04 05:46:05;;;;;;;;;;;;;;;19.18;53.02;100524.78;4244199;33;32830;-96
2021/06/04 05:48:55;;;;;;;;;;;;;;;19.33;52.89;100529.09;4226746;33;33996;-96
2021/06/04 05:51:32;;;;;;;;;;;;;;;19.35;52.33;100532.44;4218178;33;34219;-96
2021/06/04 05:54:25;;;;;;;;;;;;;;;19.64;51.81;100530.00;4249003;33;34239;-96
2021/06/04 05:57:11;;;;;;;;;;;;;;;19.68;51.97;100526.59;4226225;33;34061;-96
2021/06/04 06:00:44;;;;;;;;;;;;;;;19.60;52.82;100528.81;3779188;34;13885762;-96
2021/06/04 06:03:34;;;;;;;;;;;;;;;20.04;52.26;100530.41;4212781;33;32876;-96
2021/06/04 06:06:29;;;;;;;;;;;;;;;20.37;52.07;100531.03;4220644;33;33736;-96
2021/06/04 06:09:25;;;;;;;;;;;;;;;20.58;50.82;100536.00;4211459;33;36139;-95
2021/06/04 06:12:15;;;;;;;;;;;;;;;20.82;48.45;100536.06;4250661;33;33368;-95
2021/06/04 06:15:10;;;;;;;;;;;;;;;20.52;48.03;100536.91;4223901;33;35059;-96
2021/06/04 06:17:45;;;;;;;;;;;;;;;20.93;47.37;100537.19;4221486;33;34791;-96
2021/06/04 06:20:36;;;;;;;;;;;;;;;21.09;47.61;100541.13;4225260;33;33132;-94
2021/06/04 06:23:20;;;;;;;;;;;;;;;21.13;47.63;100547.81;4237667;33;33123;-94
2021/06/04 06:25:55;;;;;;;;;;;;;;;21.31;47.33;100544.12;4247790;33;32617;-96
2021/06/04 06:28:33;;;;;;;;;;;;;;;21.56;45.83;100543.91;4247258;33;33819;-94
2021/06/04 06:31:21;;;;;;;;;;;;;;;21.73;45.95;100545.91;4236319;33;34462;-96
2021/06/04 06:33:58;;;;;;;;;;;;;;;21.71;45.85;100539.78;4235844;33;34360;-93
2021/06/04 06:36:39;;;;;;;;;;;;;;;21.60;45.89;100544.25;4258557;33;34909;-94
2021/06/04 06:39:15;;;;;;;;;;;;;;;21.83;45.43;100546.94;4250550;33;34012;-94
2021/06/04 06:42:02;;;;;;;;;;;;;;;21.46;45.83;100540.88;4278043;33;33786;-95
2021/06/04 06:44:38;;;;;;;;;;;;;;;21.98;46.23;100545.63;4280755;33;33082;-94
2021/06/04 06:47:26;;;;;;;;;;;;;;;22.24;46.27;100541.44;4293018;33;33043;-96
2021/06/04 06:50:01;;;;;;;;;;;;;;;22.53;45.64;100544.19;4281063;33;33753;-96
2021/06/04 06:52:36;;;;;;;;;;;;;;;22.57;44.88;100539.88;4275254;33;32541;-95
2021/06/04 06:55:15;;;;;;;;;;;;;;;22.81;45.42;100548.00;4291854;33;34581;-95
2021/06/04 06:57:56;;;;;;;;;;;;;;;23.02;44.43;100538.97;4293953;33;34030;-95
2021/06/04 07:00:32;;;;;;;;;;;;;;;23.14;43.09;100543.62;4280885;33;33824;-96
2021/06/04 07:03:23;;;;;;;;;;;;;;;23.18;43.22;100545.63;4278765;33;34672;-95
2021/06/04 07:05:58;;;;;;;;;;;;;;;23.55;42.63;100539.53;4267434;33;33181;-95
2021/06/04 07:08:34;;;;;;;;;;;;;;;23.69;40.95;100540.00;4268539;33;34653;-96
2021/06/04 07:11:21;;;;;;;;;;;;;;;23.91;42.99;100539.22;4267164;33;31872;-96
2021/06/04 07:14:08;;;;;;;;;;;;;;;23.77;42.27;100535.97;4248790;33;34932;-96
2021/06/04 07:16:41;;;;;;;;;;;;;;;23.84;42.05;100535.78;4238250;33;34767;-92
2021/06/04 07:19:14;;;;;;;;;;;;;;;24.10;41.16;100539.69;4240979;33;34405;-96
2021/06/04 07:21:47;;;;;;;;;;;;;;;24.37;41.87;100538.91;4237200;33;33210;-94
2021/06/04 07:24:22;;;;;;;;;;;;;;;24.38;39.22;100541.41;4252918;33;34299;-93
2021/06/04 07:26:56;;;;;;;;;;;;;;;24.61;39.10;100544.97;4247083;33;35807;-96
2021/06/04 07:30:14;;;;;;;;;;;;;;;24.41;39.31;100546.41;4215943;33;35046;-92
2021/06/04 07:32:47;;;;;;;;;;;;;;;24.38;37.06;100543.34;4262170;33;34942;-92
2021/06/04 07:35:20;;;;;;;;;;;;;;;24.47;34.21;100545.34;4248237;33;34231;-92
2021/06/04 07:37:55;;;;;;;;;;;;;;;23.97;35.59;100552.00;4248493;33;34667;-92
2021/06/04 07:40:36;;;;;;;;;;;;;;;23.94;33.32;100547.00;4256588;33;33636;-95
2021/06/04 07:43:35;;;;;;;;;;;;;;;24.07;34.89;100548.50;4284828;33;33737;-96
2021/06/04 07:46:24;;;;;;;;;;;;;;;24.00;34.28;100545.97;4269255;33;34337;-93
2021/06/04 07:48:57;;;;;;;;;;;;;;;24.33;33.36;100544.12;4286763;33;33975;-92
2021/06/04 07:51:31;;;;;;;;;;;;;;;24.20;33.17;100539.00;4269004;33;33798;-92
2021/06/04 07:54:05;;;;;;;;;;;;;;;24.58;32.28;100534.41;4270154;33;33444;-91
2021/06/04 07:56:39;;;;;;;;;;;;;;;24.66;32.46;100542.28;4288876;33;36094;-94
2021/06/04 07:59:12;;;;;;;;;;;;;;;24.68;34.67;100542.84;4276965;33;36304;-93
2021/06/04 08:02:04;;;;;;;;;;;;;;;24.34;32.58;100545.75;4297503;33;34162;-96
2021/06/04 08:05:00;;;;;;;;;;;;;;;24.08;33.00;100548.25;4279208;33;31750;-94
2021/06/04 08:07:36;;;;;;;;;;;;;;;24.66;31.88;100548.63;4277504;33;34296;-93
2021/06/04 08:10:25;;;;;;;;;;;;;;;24.48;33.03;100546.22;4276485;33;34868;-96
2021/06/04 08:13:00;;;;;;;;;;;;;;;24.71;32.38;100550.59;4255287;33;32949;-96
2021/06/04 08:15:52;;;;;;;;;;;;;;;24.57;33.42;100557.62;4280572;33;32244;-93
2021/06/04 08:18:35;;;;;;;;;;;;;;;24.76;32.95;100547.03;4259187;33;33564;-95
2021/06/04 08:21:31;;;;;;;;;;;;;;;24.54;33.72;100560.91;4278663;28;33108;-88
2021/06/04 08:24:20;;;;;;;;;;;;;;;24.05;34.41;100553.47;4283664;33;34613;-94
2021/06/04 08:27:05;;;;;;;;;;;;;;;24.53;34.47;100550.94;4265549;33;33505;-95
2021/06/04 08:29:49;;;;;;;;;;;;;;;24.93;34.16;100552.47;4268882;33;34092;-96
2021/06/04 08:32:55;;;;;;;;;;;;;;;24.94;34.62;100552.19;4248917;33;33153;-96
2021/06/04 08:36:13;;;;;;;;;;;;;;;25.24;33.27;100552.69;4255083;33;32556;-96
2021/06/04 08:38:49;;;;;;;;;;;;;;;25.12;35.81;100550.94;4237510;33;31662;-88
2021/06/04 08:41:35;;;;;;;;;;;;;;;25.47;33.91;100554.25;4254205;33;34841;-96
2021/06/04 08:44:24;;;;;;;;;;;;;;;25.11;34.81;100549.28;4260697;33;33150;-91
2021/06/04 08:47:46;;;;;;;;;;;;;;;25.36;32.74;100556.13;4258637;33;35557;-96
2021/06/04 08:50:27;;;;;;;;;;;;;;;25.49;34.09;100543.75;4268267;33;33095;-96
2021/06/04 08:53:30;;;;;;;;;;;;;;;25.73;31.26;100550.53;4271933;33;34472;-95
2021/06/04 08:56:26;;;;;;;;;;;;;;;25.94;32.19;100541.47;4269275;33;32751;-96
2021/06/04 08:59:23;;;;;;;;;;;;;;;26.25;31.65;100532.19;4260649;33;33602;-95
2021/06/04 09:01:58;;;;;;;;;;;;;;;26.27;32.32;100543.00;4230413;33;32541;-92
2021/06/04 09:04:36;;;;;;;;;;;;;;;25.63;32.67;100541.31;4253720;33;33294;-93
2021/06/04 09:07:13;;;;;;;;;;;;;;;25.61;32.89;100540.78;4238413;33;33542;-96
2021/06/04 09:10:09;;;;;;;;;;;;;;;26.17;34.58;100532.75;4263528;33;34445;-88
2021/06/04 09:13:03;;;;;;;;;;;;;;;26.90;32.63;100530.91;4274077;33;32268;-96
2021/06/04 09:15:58;;;;;;;;;;;;;;;26.81;30.04;100522.31;4282116;33;35850;-91
2021/06/04 09:18:37;;;;;;;;;;;;;;;27.52;30.38;100528.09;4255164;33;34236;-92
2021/06/04 09:21:15;;;;;;;;;;;;;;;27.19;29.65;100531.19;4254518;33;33643;-93
2021/06/04 09:23:49;;;;;;;;;;;;;;;26.24;31.65;100533.31;4276699;33;33210;-95
2021/06/04 09:26:37;;;;;;;;;;;;;;;26.93;30.34;100522.03;4297281;33;32480;-94
2021/06/04 09:29:11;;;;;;;;;;;;;;;26.90;33.50;100522.59;4273113;33;34380;-92
2021/06/04 09:31:48;;;;;;;;;;;;;;;27.28;31.34;100521.16;4292205;33;33922;-96
2021/06/04 09:34:40;;;;;;;;;;;;;;;27.45;29.46;100514.50;4227835;33;33154;-94
2021/06/04 09:37:33;;;;;;;;;;;;;;;27.01;31.20;100520.66;4256199;33;32884;-93
2021/06/04 09:40:34;;;;;;;;;;;;;;;26.79;31.51;100527.31;4267273;33;33881;-96
2021/06/04 09:43:23;;;;;;;;;;;;;;;26.13;30.79;100522.47;4265819;33;33484;-95
2021/06/04 09:46:33;;;;;;;;;;;;;;;26.39;30.24;100517.81;4289945;28;20060;-96
2021/06/04 09:49:56;;;;;;;;;;;;;;;26.68;31.60;100509.03;4255182;33;33579;-96
2021/06/04 09:53:26;;;;;;;;;;;;;;;27.05;29.69;100502.34;4261949;33;19972;-95
2021/06/04 09:56:08;;;;;;;;;;;;;;;28.24;30.66;100502.81;4264567;33;33929;-96
2021/06/04 09:58:59;;;;;;;;;;;;;;;27.92;28.83;100504.03;4261918;33;33028;-94
2021/06/04 10:01:41;;;;;;;;;;;;;;;27.52;29.03;100501.16;4249244;33;33609;-92
2021/06/04 10:04:18;;;;;;;;;;;;;;;27.60;28.31;100506.13;4234786;33;34692;-95
2021/06/04 10:07:06;;;;;;;;;;;;;;;27.58;29.79;100494.47;4252837;33;33916;-95
2021/06/04 10:09:41;;;;;;;;;;;;;;;27.78;29.85;100503.84;4264178;33;33608;-93
2021/06/04 10:12:30;;;;;;;;;;;;;;;27.44;28.91;100498.94;4273387;33;32675;-92
2021/06/04 10:15:13;;;;;;;;;;;;;;;27.53;28.22;100505.63;4270299;33;32846;-96
2021/06/04 10:17:58;;;;;;;;;;;;;;;27.88;26.91;100500.19;4259129;33;34662;-91
2021/06/04 10:20:33;;;;;;;;;;;;;;;28.29;25.93;100491.66;4246136;33;33871;-92
2021/06/04 10:23:21;;;;;;;;;;;;;;;28.90;28.22;100493.16;4281020;33;34642;-96
2021/06/04 10:26:27;;;;;;;;;;;;;;;29.41;26.33;100494.59;4271487;33;34326;-96
2021/06/04 10:28:59;;;;;;;;;;;;;;;29.11;26.41;100481.81;4254647;33;35569;-91
2021/06/04 10:31:35;;;;;;;;;;;;;;;29.38;26.74;100487.66;4287149;33;33081;-91
2021/06/04 10:34:14;;;;;;;;;;;;;;;28.85;25.54;100495.97;4280670;33;33264;-92
2021/06/04 10:36:57;;;;;;;;;;;;;;;29.17;25.25;100495.38;4285715;33;36007;-91
2021/06/04 10:39:48;;;;;;;;;;;;;;;28.97;26.33;100493.63;4290243;33;33641;-95
2021/06/04 10:42:37;;;;;;;;;;;;;;;28.77;26.64;100479.91;4236598;33;32255;-95
2021/06/04 10:45:17;;;;;;;;;;;;;;;29.75;29.14;100480.53;4259165;33;32800;-91
2021/06/04 10:47:51;;;;;;;;;;;;;;;30.00;28.20;100472.16;4269704;33;34465;-96
2021/06/04 10:50:32;;;;;;;;;;;;;;;30.73;28.20;100473.56;4256579;33;34260;-89
2021/06/04 10:53:06;;;;;;;;;;;;;;;30.53;24.17;100473.91;4256105;33;33004;-89
2021/06/04 10:55:47;;;;;;;;;;;;;;;30.20;23.91;100476.63;4258748;33;33518;-96
2021/06/04 10:58:55;;;;;;;;;;;;;;;29.82;25.77;100476.59;4266267;33;33259;-96
2021/06/04 11:02:02;;;;;;;;;;;;;;;29.58;25.17;100469.91;4246970;33;35307;-96
2021/06/04 11:05:23;;;;;;;;;;;;;;;28.70;29.66;100458.03;4261688;33;33494;-95
2021/06/04 11:08:14;;;;;;;;;;;;;;;28.67;30.38;100459.41;4281547;33;34923;-96
2021/06/04 11:11:07;;;;;;;;;;;;;;;28.95;31.25;100454.13;4270185;33;33221;-90
2021/06/04 11:13:58;;;;;;;;;;;;;;;29.36;28.48;100458.50;4282767;33;34094;-93
2021/06/04 11:16:45;;;;;;;;;;;;;;;29.21;28.85;100451.13;4281008;33;33691;-96
2021/06/04 11:19:38;;;;;;;;;;;;;;;29.43;29.39;100453.38;4282937;33;34366;-96
2021/06/04 11:22:24;;;;;;;;;;;;;;;30.03;24.70;100438.97;4301546;33;33921;-96
2021/06/04 11:25:01;;;;;;;;;;;;;;;30.50;29.75;100449.44;4268696;33;34225;-96
2021/06/04 11:28:10;;;;;;;;;;;;;;;31.64;27.35;100435.03;4246238;33;33039;-91
2021/06/04 11:30:43;;;;;;;;;;;;;;;32.20;22.37;100439.38;4252214;33;34445;-90
2021/06/04 11:33:23;;;;;;;;;;;;;;;32.64;23.36;100436.06;4242727;33;34864;-96
2021/06/04 11:35:59;;;;;;;;;;;;;;;32.09;22.24;100439.91;4238210;33;34187;-96
2021/06/04 11:38:41;;;;;;;;;;;;;;;32.35;21.15;100428.94;4262411;33;32564;-96
2021/06/04 11:41:18;;;;;;;;;;;;;;;31.70;23.23;100430.97;4238895;33;32805;-96
2021/06/04 11:44:23;;;;;;;;;;;;;;;;;;;;;
2021/06/04 11:47:22;;;;;;;;;;;;;;;32.91;21.03;100426.69;4269640;33;34180;-90
2021/06/04 11:50:01;;;;;;;;;;;;;;;34.17;19.81;100421.59;4240805;33;33674;-96
2021/06/04 11:52:46;;;;;;;;;;;;;;;33.95;22.02;100419.78;4261981;33;34665;-94
2021/06/04 11:55:39;;;;;;;;;;;;;;;33.88;19.63;100414.66;4265589;33;32485;-95
2021/06/04 11:58:28;;;;;;;;;;;;;;;32.17;21.53;100423.22;4311041;27;32767;-96
2021/06/04 12:01:16;;;;;;;;;;;;;;;32.92;20.93;100417.13;4286755;33;31668;-94
2021/06/04 12:03:53;;;;;;;;;;;;;;;32.97;22.06;100413.37;4283543;33;34299;-93
2021/06/04 12:07:16;;;;;;;;;;;;;;;32.79;20.45;100402.09;4275447;33;34890;-95
2021/06/04 12:09:50;;;;;;;;;;;;;;;32.88;20.73;100411.34;4273788;33;34385;-92
2021/06/04 12:13:09;;;;;;;;;;;;;;;33.14;18.97;100407.03;4788579;28;35573;31
2021/06/04 12:16:22;;;;;;;;;;;;;;;35.22;18.01;100390.47;4489947;26;810102;-92
2021/06/04 12:19:24;;;;;;;;;;;;;;;35.22;18.01;100390.47;4480551;32;32260;-91
2021/06/04 12:22:19;;;;;;;;;;;;;;;35.44;16.70;100382.97;5098300;26;35665;-96
2021/06/04 12:28:26;;;;;;;;;;;;;;;36.33;18.50;100379.94;4572718;26;21698;31
2021/06/04 12:31:03;;;;;;;;;;;;;;;36.60;17.66;100379.66;4947566;27;32928;-90
2021/06/04 12:36:57;;;;;;;;;;;;;;;37.28;18.53;100385.63;4583119;26;20022;-93
2021/06/04 12:40:13;;;;;;;;;;;;;;;36.25;17.06;100380.00;4350370;32;33180;-96
2021/06/04 12:43:04;;;;;;;;;;;;;;;36.67;17.19;100386.34;4364055;32;34186;-94
2021/06/04 12:45:41;;;;;;;;;;;;;;;37.27;18.03;100378.34;4376636;32;34822;-94
2021/06/04 12:48:17;;;;;;;;;;;;;;;37.39;15.92;100374.69;4369434;32;33794;-95
2021/06/04 12:50:50;;;;;;;;;;;;;;;37.20;16.70;100371.63;4366130;32;32629;-94
2021/06/04 12:53:33;;;;;;;;;;;;;;;36.88;20.75;100375.03;4366405;32;32576;-92
2021/06/04 12:56:10;;;;;;;;;;;;;;;37.03;18.06;100367.06;4380274;32;33787;-96
2021/06/04 12:59:14;;;;;;;;;;;;;;;35.13;18.33;100372.84;4360027;32;33738;-94
2021/06/04 13:01:55;;;;;;;;;;;;;;;34.26;18.10;100363.53;4360757;32;34979;-92
2021/06/04 13:04:29;;;;;;;;;;;;;;;33.74;19.45;100369.97;4352955;32;33164;-93
2021/06/04 13:07:03;;;;;;;;;;;;;;;33.46;19.55;100366.63;4372322;32;34721;-96
2021/06/04 13:09:38;;;;;;;;;;;;;;;33.11;20.63;100376.88;4360972;32;33270;-93
2021/06/04 13:12:25;;;;;;;;;;;;;;;33.50;21.13;100362.00;4374097;32;33803;-92
2021/06/04 13:15:14;;;;;;;;;;;;;;;33.46;21.95;100374.19;4360931;32;32949;-93
2021/06/04 13:17:53;;;;;;;;;;;;;;;33.74;18.14;100360.75;4371699;32;33988;-91
2021/06/04 13:20:30;;;;;;;;;;;;;;;33.60;20.75;100356.09;4362074;32;35461;-93
2021/06/04 13:23:06;;;;;;;;;;;;;;;33.77;18.81;100351.69;4365126;32;34016;-91
2021/06/04 13:25:39;;;;;;;;;;;;;;;33.77;19.34;100352.53;4375165;32;32532;-91
2021/06/04 13:28:21;;;;;;;;;;;;;;;34.20;17.91;100342.41;4360655;32;34065;-95
2021/06/04 13:30:56;;;;;;;;;;;;;;;34.37;18.28;100352.78;4351178;32;33663;-91
2021/06/04 13:33:32;;;;;;;;;;;;;;;34.33;17.39;100345.37;4349109;32;34413;-92
2021/06/04 13:36:06;;;;;;;;;;;;;;;34.06;18.06;100336.16;4336265;32;34664;-93
2021/06/04 13:38:44;;;;;;;;;;;;;;;34.06;18.90;100339.78;4357666;32;34008;-95
2021/06/04 13:41:25;;;;;;;;;;;;;;;33.54;18.06;100350.97;4344345;32;33682;-91
2021/06/04 13:44:01;;;;;;;;;;;;;;;32.94;18.63;100347.69;4350673;32;35193;-95
2021/06/04 13:46:42;;;;;;;;;;;;;;;33.63;18.29;100339.78;4365256;32;34026;-93
2021/06/04 13:49:15;;;;;;;;;;;;;;;34.15;18.01;100334.19;4350705;32;33363;-92
2021/06/04 13:51:55;;;;;;;;;;;;;;;33.81;18.67;100341.47;4372383;32;35060;-91
2021/06/04 13:54:36;;;;;;;;;;;;;;;33.49;18.61;100339.91;4363891;32;33517;-91
2021/06/04 13:57:27;;;;;;;;;;;;;;;32.95;20.88;100340.09;4344354;32;33190;-91
2021/06/04 14:00:12;;;;;;;;;;;;;;;33.19;18.57;100331.28;4372811;32;34752;-96
2021/06/04 14:02:49;;;;;;;;;;;;;;;33.54;19.57;100326.59;4370284;32;33651;-96
2021/06/04 14:05:29;;;;;;;;;;;;;;;33.99;18.35;100321.84;4337083;32;33837;-92
2021/06/04 14:08:05;;;;;;;;;;;;;;;33.01;18.59;100330.41;4343052;32;33244;-94
2021/06/04 14:10:39;;;;;;;;;;;;;;;33.41;19.25;100328.37;4360412;32;34015;-90
2021/06/04 14:13:14;;;;;;;;;;;;;;;33.61;18.71;100332.53;4348577;32;33805;-90
2021/06/04 14:15:46;;;;;;;;;;;;;;;33.36;18.76;100320.12;4362318;32;34008;-94
2021/06/04 14:18:34;;;;;;;;;;;;;;;33.31;19.40;100327.88;4362972;32;33888;-94
2021/06/04 14:21:28;;;;;;;;;;;;;;;33.73;18.39;100323.50;4379247;32;34494;-95
2021/06/04 14:24:06;;;;;;;;;;;;;;;34.00;19.85;100310.28;4354050;32;33786;-90
2021/06/04 14:26:38;;;;;;;;;;;;;;;34.22;19.63;100317.66;4368496;32;33978;-94
2021/06/04 14:29:22;;;;;;;;;;;;;;;33.72;20.08;100316.22;4375543;32;33759;-94
2021/06/04 14:31:56;;;;;;;;;;;;;;;33.87;19.03;100323.31;4364523;32;34081;-90
2021/06/04 14:34:30;;;;;;;;;;;;;;;33.33;18.81;100309.59;4369773;32;35519;-95
2021/06/04 14:37:03;;;;;;;;;;;;;;;33.21;19.60;100307.44;4343789;32;34572;-96
2021/06/04 14:39:41;;;;;;;;;;;;;;;33.35;18.56;100317.66;4363980;32;32803;-95
2021/06/04 14:42:17;;;;;;;;;;;;;;;33.16;18.43;100313.16;4354725;32;34350;-95
2021/06/04 14:44:50;;;;;;;;;;;;;;;32.98;19.67;100317.06;4357051;32;33694;-95
2021/06/04 14:47:24;;;;;;;;;;;;;;;32.75;19.97;100317.16;4354873;32;34853;-94
2021/06/04 14:49:57;;;;;;;;;;;;;;;33.20;20.38;100311.37;4358420;32;32953;-94
2021/06/04 14:52:31;;;;;;;;;;;;;;;33.58;19.89;100304.31;4340833;32;34845;-95
2021/06/04 14:55:04;;;;;;;;;;;;;;;32.87;19.27;100308.94;4347914;32;35386;-94
2021/06/04 14:57:36;;;;;;;;;;;;;;;33.05;19.84;100309.81;4360495;32;33520;-96
2021/06/04 15:00:23;;;;;;;;;;;;;;;32.48;20.06;100310.56;4354633;32;33838;-94
2021/06/04 15:02:56;;;;;;;;;;;;;;;32.60;20.05;100306.38;4360497;32;34302;-94
2021/06/04 15:05:29;;;;;;;;;;;;;;;32.69;20.91;100299.66;4348676;32;33748;-94
2021/06/04 15:08:02;;;;;;;;;;;;;;;33.06;20.84;100300.28;4360571;32;34704;-94